Aviation Digital Data Service (ADDS)

Output produced by METARs form (0803 UTC 23 July 2018)
found at http://www.aviationweather.gov/adds/metars/
 
KMDT 230756Z 09005KT 9SM -TSRA BKN045CB BKN075 OVC100 22/21 A2992 RMK AO2 SLP130 OCNL LTGICCC N-E TS N-E MOV NE P0017 T02170206
KMDT 230728Z 15007KT 2 1/2SM TSRA BKN045CB BKN075 OVC100 22/21 A2991 RMK AO2 FRQ LTGICCC OHD AND ALQDS TS OHD AND ALQDS MOV NE P0007 T02220211
KMDT 230656Z 00000KT 5SM -TSRA BKN005CB BKN060 OVC100 22/22 A2990 RMK AO2 RAB15 TSB0558 SLP123 OCNL LTGICCC NE-OHD-SE TS NE-OHD-SE MOV NE P0004 T02220217
KMDT 230604Z 11003KT 7SM TS OVC006CB 22/22 A2989 RMK AO2 TSB0558 OCNL LTGICCC S-SW TS S-SW MOV N T02220217
KMDT 230556Z 11003KT 8SM OVC006 22/22 A2990 RMK AO2 RAE22 SLP124 LTG DSNT S P0020 60063 T02220217 10239 20217 58007
KMDT 230519Z 14003KT 7SM -RA BKN007 BKN014 OVC025 22/21 A2992 RMK AO2 P0020 T02170211
KMDT 230510Z 12004KT 3SM R13/5000VP6000FT -RA FEW007 BKN015 OVC025 22/21 A2992 RMK AO2 P0020 T02170211
KMDT 230505Z 10007KT 1 1/2SM R13/5000VP6000FT +RA SCT007 BKN013 OVC032 22/21 A2992 RMK AO2 P0011 T02170211
KMDT 230456Z 12004KT 5SM -RA SCT007 BKN013 OVC024 22/21 A2992 RMK AO2 RAB00E20B38 TSE27B30E55 SLP132 TS DSPTD P0039 T02170206 402780178
KMDT 230453Z 14005KT 3SM -TSRA BKN015 OVC024 22/21 A2993 RMK AO2 RAB00E20B38 TSE27B30 OCNL LTGICCC SE-OHD-SW TS SE-OHD-SW MOV N P0039
KMDT 230443Z 12008KT 1 3/4SM R13/6000VP6000FT +TSRA BKN017CB OVC030 22/21 A2993 RMK AO2 RAB00E20B38 TSE27B30 OCNL LTGICCC SE-OHD-SW TS SE-OHD-SW MOV N P0027 T02170206
KMDT 230401Z 12009KT 6SM TSRA BR BKN023CB OVC034 22/21 A2993 RMK AO2 RAB00 OCNL LTGICCC S-OHD-NW TS S-OHD-NW MOV N P0000 T02220206
KMDT 230356Z 12004KT 10SM TS BKN031CB BKN065 22/21 A2993 RMK AO2 TSB50 SLP133 OCNL LTGICCC SW-NW TS SW-NW MOV N T02220211
KMDT 230256Z 09003KT 10SM FEW045 SCT100 SCT250 22/21 A2992 RMK AO2 SLP131 60004 T02220211 53005
KMDT 230156Z 12006KT 10SM FEW030 SCT065 BKN080 22/21 A2991 RMK AO2 RAE27 TSE37 SLP127 P0004 T02220211
KMDT 230143Z 12006KT 10SM FEW030 SCT065 BKN080 23/21 A2990 RMK AO2 RAE27 TSE37 TS MOVD NE P0004 T02280211
KMDT 230056Z 12007KT 10SM -TSRA SCT030CB SCT045 BKN055 23/21 A2990 RMK AO2 RAB42 TSB46 SLP125 OCNL LTGIC N P0000 T02280211
KMDT 230052Z 12007KT 10SM -TSRA SCT030CB SCT045 BKN055 23/21 A2991 RMK AO2 RAB42 TSB46 OCNL LTGIC N P0000
KMDT 222356Z 11008KT 10SM FEW030 SCT070 BKN110 24/21 A2987 RMK AO2 SLP113 60018 T02390206 10278 20233 53007
KMDT 222256Z 14007KT 10SM FEW030 SCT070 BKN110 25/21 A2986 RMK AO2 SLP110 T02500211
KMDT 222156Z 11012KT 10SM FEW030 SCT070 BKN095 25/22 A2985 RMK AO2 RAE32 SLP106 P0002 T02500222
KMDT 222103Z 08010KT 4SM RA BR FEW023 BKN070 OVC095 23/22 A2983 RMK AO2 P0001 T02330217
KMDT 222056Z 09011KT 2 1/2SM R13/6000VP6000FT RA BR FEW047 BKN070 OVC095 23/22 A2985 RMK AO2 RAB10 SLP106 P0014 60016 T02330217 55003
KMDT 222047Z 11010KT 1 3/4SM R13/6000VP6000FT +RA BR FEW022 BKN070 OVC090 23/21 A2985 RMK AO2 RAB10 P0008 T02330211
KMDT 221956Z 14005KT 10SM FEW029 SCT055 BKN100 24/21 A2984 RMK AO2 RAB13E33 SLP104 P0002 T02440206
KMDT 221856Z 12012KT 10SM FEW029 SCT065 BKN100 28/21 A2985 RMK AO2 SLP107 T02780206
KMDT 221841Z 13011KT 10SM FEW027 SCT032 BKN065 26/20 A2985 RMK AO2 T02610200
KMDT 221756Z 13008KT 10SM BKN029 BKN046 BKN100 26/20 A2985 RMK AO2 SLP109 T02610200 10272 20189 50003
KMDT 221731Z 13008KT 10SM BKN029 BKN046 BKN140 26/19 A2986 RMK AO2 T02560194
KMDT 221656Z 13008KT 10SM SCT029 BKN046 BKN140 25/19 A2986 RMK AO2 SLP110 T02500189
KMDT 221636Z 15007KT 10SM SCT029 BKN046 BKN140 24/19 A2986 RMK AO2 T02440189
KMDT 221556Z 14006KT 10SM BKN029 BKN140 24/19 A2985 RMK AO2 SLP108 T02440189
KMDT 221456Z 15005KT 10SM BKN024 24/18 A2985 RMK AO2 SLP105 T02390183 51023
KMDT 221356Z 15006KT 10SM OVC015 21/17 A2983 RMK AO2 SLP102 T02110172
KMDT 221256Z 20004KT 10SM BKN011 OVC013 19/17 A2981 RMK AO2 SLP095 T01940172
KMDT 221241Z VRB03KT 10SM BKN011 OVC013 20/17 A2981 RMK AO2 PRESRR T02000172
KMDT 221156Z 18005KT 10SM SCT009 OVC019 19/17 A2978 RMK AO2 SLP083 60025 70207 T01890172 10189 20178 51044
KMDT 221137Z 20008G16KT 7SM SCT009 BKN021 19/17 A2977 RMK AO2 T01890172
KMDT 221056Z VRB06KT 6SM BR BKN009 BKN012 OVC026 19/17 A2974 RMK AO2 SLP070 T01890172
KMDT 221017Z 00000KT 4SM BR BKN009 OVC017 19/18 A2971 RMK AO2 CIG 005V012 T01890178
KMDT 220956Z 22004KT 4SM BR BKN011 OVC017 19/18 A2969 RMK AO2 RAB44E50 CIG 007V012 SLP055 P0000 T01890178
KMDT 220856Z 26007KT 10SM FEW009 BKN013 OVC029 19/17 A2964 RMK AO2 RAE48 SLP038 P0001 60025 T01890172 53017
KMDT 220756Z 31013KT 3SM -RA BR SCT005 BKN023 OVC035 18/17 A2960 RMK AO2 SLP023 P0007 T01780172
KMDT 220748Z 31014KT 3SM -RA BR FEW005 OVC021 18/17 A2960 RMK AO2 P0007 T01780172
KMDT 220733Z 29015G22KT 2SM -RA BR SCT005 SCT009 OVC016 18/17 A2960 RMK AO2 P0006 T01780167
KMDT 220723Z 29016KT 1 3/4SM RA BR SCT005 OVC012 18/17 A2960 RMK AO2 P0004 T01780172
KMDT 220656Z 29015KT 2 1/2SM RA BR BKN008 OVC015 18/18 A2959 RMK AO2 SLP021 P0017 T01830178
KMDT 220631Z 29008KT 1 3/4SM +RA BR OVC008 19/18 A2960 RMK AO2 CIG 005V011 P0003 T01890183
KMDT 220556Z 31010G18KT 6SM -RA BR OVC008 18/18 A2961 RMK AO2 CIG 005V010 SLP026 P0016 60079 T01830178 10183 20167 58058
KMDT 220542Z VRB05G16KT 4SM -RA BR BKN008 OVC016 18/17 A2961 RMK AO2 P0014 T01830172
KMDT 220529Z 01007G16KT 2 1/2SM +RA BR BKN008 OVC016 18/17 A2962 RMK AO2 PRESFR P0012 T01830172
KMDT 220522Z 01010G16KT 1 3/4SM +RA BR BKN008 OVC020 18/17 A2963 RMK AO2 PRESFR P0009 T01830167
KMDT 220456Z VRB06KT 7SM -RA BKN008 BKN013 OVC027 18/16 A2966 RMK AO2 PRESFR SLP044 P0026 T01780161 402280161
KMDT 220446Z 04007G16KT 5SM RA BR BKN009 OVC022 17/16 A2968 RMK AO2 P0024 T01720161
KMDT 220428Z VRB05KT 2 1/2SM RA BR BKN009 BKN018 OVC038 17/16 A2970 RMK AO2 P0014 T01720161
KMDT 220356Z 05009G16KT 3SM RA BR BKN009 BKN015 OVC031 17/16 A2973 RMK AO2 SLP067 P0005 T01720161
KMDT 220256Z 05009KT 10SM -RA OVC011 18/16 A2978 RMK AO2 RAE33B53 CIG 007V014 SLP083 P0002 60032 T01780161 58030
KMDT 220156Z VRB04KT 6SM -RA BR OVC011 17/16 A2982 RMK AO2 CIG 008V013 SLP097 P0018 T01670156
KMDT 220122Z 08006KT 2SM +RA BR BKN013 OVC021 17/15 A2984 RMK AO2 P0006 T01670150
KMDT 220056Z 09009G21KT 8SM -RA FEW015 OVC022 17/15 A2985 RMK AO2 SLP107 P0012 T01670150
KMDT 220011Z 07009KT 3SM -RA BR BKN013 OVC020 17/15 A2986 RMK AO2 P0002 T01670150
KMDT 212356Z VRB05KT 2SM -RA BR BKN015 OVC021 17/15 A2987 RMK AO2 SLP115 P0014 60088 T01670150 10194 20161 56018
KMDT 212333Z 05007KT 2SM R13/5500VP6000FT +RA BR OVC024 16/14 A2988 RMK AO2 P0010 T01610144
KMDT 212256Z 04005KT 8SM -RA BKN026 OVC031 16/14 A2989 RMK AO2 SLP122 P0010 T01610144
KMDT 212156Z 05005KT 3SM RA BR BKN013 OVC020 19/18 A2990 RMK AO2 SLP124 P0015 T01890178
KMDT 212118Z 00000KT 2 1/2SM RA BR FEW008 BKN020 OVC037 18/17 A2992 RMK AO2 P0006 T01830172
KMDT 212102Z 03004KT 2 1/2SM RA BR FEW008 BKN014 OVC048 18/17 A2992 RMK AO2 P0001 T01830172
KMDT 212056Z 02004KT 2 1/2SM RA BR SCT010 BKN021 OVC050 18/17 A2992 RMK AO2 SLP133 P0012 60049 T01830172 58013
KMDT 212051Z 03003KT 3SM RA BR SCT010 BKN021 OVC050 18/17 A2992 RMK AO2 P0011
KMDT 212043Z 01004KT 2 1/2SM RA BR FEW008 BKN040 OVC048 18/17 A2992 RMK AO2 P0009 T01830172